createdAt,value
2019-06-20T00:00:44.857Z,25.84
2019-06-20T00:03:13.467Z,25.86
2019-06-20T00:05:41.985Z,25.86
2019-06-20T00:08:10.751Z,25.72
2019-06-20T00:10:39.225Z,25.23
2019-06-20T00:13:07.823Z,25.00
2019-06-20T00:15:36.853Z,24.70
2019-06-20T00:18:05.428Z,24.49
2019-06-20T00:20:33.912Z,24.35
2019-06-20T00:23:02.391Z,24.25
2019-06-20T00:25:31.340Z,24.21
2019-06-20T00:27:59.802Z,24.20
2019-06-20T00:30:28.271Z,24.25
2019-06-20T00:32:56.757Z,24.19
2019-06-20T00:35:25.215Z,24.15
2019-06-20T00:37:53.678Z,24.09
2019-06-20T00:40:22.131Z,24.12
2019-06-20T00:42:50.619Z,24.15
2019-06-20T00:45:19.433Z,24.16
2019-06-20T00:47:48.074Z,24.17
2019-06-20T00:50:16.587Z,24.18
2019-06-20T00:52:45.075Z,24.26
2019-06-20T00:55:13.747Z,24.25
2019-06-20T00:57:42.237Z,24.22
2019-06-20T01:00:11.181Z,24.25
2019-06-20T01:02:39.652Z,24.32
2019-06-20T01:05:08.260Z,24.16
2019-06-20T01:07:36.758Z,24.10
2019-06-20T01:10:09.914Z,24.12
2019-06-20T01:12:38.410Z,24.08
2019-06-20T01:15:08.402Z,24.01
2019-06-20T01:17:36.957Z,24.04
2019-06-20T01:20:11.853Z,24.15
2019-06-20T01:22:40.397Z,24.23
2019-06-20T01:25:09.127Z,24.25
2019-06-20T01:27:38.172Z,24.23
2019-06-20T01:30:10.141Z,24.29
2019-06-20T01:32:38.695Z,24.34
2019-06-20T01:35:10.265Z,24.36
2019-06-20T01:37:38.797Z,24.33
2019-06-20T01:40:07.647Z,24.37
2019-06-20T01:42:36.223Z,24.30
2019-06-20T01:45:06.676Z,24.26
2019-06-20T01:47:35.346Z,24.21
2019-06-20T01:50:05.362Z,24.20
2019-06-20T01:52:34.150Z,24.12
2019-06-20T01:55:02.586Z,24.08
2019-06-20T01:57:31.053Z,24.04
2019-06-20T02:00:00.403Z,24.01
2019-06-20T02:02:28.874Z,23.96
2019-06-20T02:04:57.390Z,23.85
2019-06-20T02:07:28.264Z,23.82
2019-06-20T02:09:56.124Z,23.78
2019-06-20T02:12:24.580Z,23.72
2019-06-20T02:14:52.987Z,23.68
2019-06-20T02:17:21.437Z,23.68
2019-06-20T02:19:49.933Z,23.63
2019-06-20T02:22:18.338Z,23.58
2019-06-20T02:24:46.832Z,23.57
2019-06-20T02:27:15.343Z,23.52
2019-06-20T02:29:43.785Z,23.52
2019-06-20T02:32:12.248Z,23.48
2019-06-20T02:34:40.694Z,23.50
2019-06-20T02:37:09.246Z,23.48
2019-06-20T02:39:37.640Z,23.50
2019-06-20T02:42:06.245Z,23.44
2019-06-20T02:44:36.253Z,23.44
2019-06-20T02:47:04.785Z,23.43
2019-06-20T02:49:33.240Z,23.39
2019-06-20T02:52:01.715Z,23.37
2019-06-20T02:54:30.255Z,23.39
2019-06-20T02:56:58.811Z,23.36
2019-06-20T02:59:27.347Z,23.16
2019-06-20T03:01:56.165Z,22.90
2019-06-20T03:04:24.628Z,22.81
2019-06-20T03:06:53.151Z,22.71
2019-06-20T03:09:21.643Z,22.72
2019-06-20T03:11:50.412Z,22.69
2019-06-20T03:14:18.891Z,22.73
2019-06-20T03:16:47.334Z,22.76
2019-06-20T03:19:15.816Z,22.74
2019-06-20T03:21:44.269Z,22.76
2019-06-20T03:24:12.755Z,22.73
2019-06-20T03:26:41.272Z,22.61
2019-06-20T03:29:09.749Z,22.61
2019-06-20T03:31:38.310Z,22.72
2019-06-20T03:34:06.863Z,22.73
2019-06-20T03:36:35.420Z,22.77
2019-06-20T03:39:05.495Z,22.74
2019-06-20T03:41:33.978Z,22.74
2019-06-20T03:44:02.430Z,22.70
2019-06-20T03:46:30.861Z,22.71
2019-06-20T03:48:59.310Z,22.69
2019-06-20T03:51:27.781Z,22.75
2019-06-20T03:53:56.296Z,22.78
2019-06-20T03:56:24.763Z,22.73
2019-06-20T03:58:53.291Z,22.71
2019-06-20T04:01:21.660Z,22.60
2019-06-20T04:03:50.078Z,22.49
2019-06-20T04:06:18.625Z,22.48
2019-06-20T04:08:47.166Z,22.55
2019-06-20T04:11:15.615Z,22.60
2019-06-20T04:13:44.146Z,22.65
2019-06-20T04:16:12.607Z,22.67
2019-06-20T04:18:41.076Z,22.72
2019-06-20T04:21:09.587Z,22.76
2019-06-20T04:23:37.959Z,22.65
2019-06-20T04:26:06.372Z,22.58
2019-06-20T04:28:34.852Z,22.57
2019-06-20T04:31:03.326Z,22.57
2019-06-20T04:33:31.773Z,22.49
2019-06-20T04:36:00.303Z,22.58
2019-06-20T04:38:28.763Z,22.64
2019-06-20T04:40:57.265Z,22.70
2019-06-20T04:43:25.861Z,22.78
2019-06-20T04:45:59.058Z,22.83
2019-06-20T04:48:27.554Z,22.88
2019-06-20T04:50:56.005Z,22.97
2019-06-20T04:53:24.478Z,22.85
2019-06-20T04:55:52.929Z,22.89
2019-06-20T04:58:21.419Z,22.90
2019-06-20T05:00:49.935Z,22.93
2019-06-20T05:03:18.468Z,23.01
2019-06-20T05:05:46.937Z,23.05
2019-06-20T05:08:15.402Z,23.20
2019-06-20T05:10:43.968Z,23.32
2019-06-20T05:13:12.432Z,23.31
2019-06-20T05:15:52.191Z,23.04
2019-06-20T05:18:11.256Z,23.12
2019-06-20T05:20:39.727Z,23.16
2019-06-20T05:23:08.145Z,23.32
2019-06-20T05:25:36.734Z,23.28
2019-06-20T05:28:05.264Z,23.33
2019-06-20T05:30:33.818Z,23.19
2019-06-20T05:33:02.291Z,23.29
2019-06-20T05:35:30.746Z,23.48
2019-06-20T05:37:59.299Z,23.74
2019-06-20T05:40:27.913Z,23.82
2019-06-20T05:42:56.505Z,23.82
2019-06-20T05:45:25.124Z,23.79
2019-06-20T05:47:53.544Z,23.73
2019-06-20T05:50:22.079Z,23.74
2019-06-20T05:52:50.538Z,23.85
2019-06-20T05:55:19.100Z,23.83
2019-06-20T05:57:47.679Z,23.42
2019-06-20T06:00:16.196Z,23.28
2019-06-20T06:02:44.644Z,23.11
2019-06-20T06:05:14.374Z,22.99
2019-06-20T06:07:42.822Z,23.01
2019-06-20T06:10:12.992Z,22.98
2019-06-20T06:12:41.496Z,22.71
2019-06-20T06:15:10.279Z,22.78
2019-06-20T06:17:38.782Z,22.56
2019-06-20T06:20:08.013Z,22.53
2019-06-20T06:22:36.778Z,22.45
2019-06-20T06:25:06.905Z,22.10
2019-06-20T06:27:35.392Z,21.86
2019-06-20T06:30:08.615Z,21.44
2019-06-20T06:32:40.424Z,21.15
2019-06-20T06:35:07.975Z,20.72
2019-06-20T06:37:36.655Z,20.65
2019-06-20T06:40:12.651Z,20.54
2019-06-20T06:42:41.312Z,20.51
2019-06-20T06:45:10.981Z,20.51
2019-06-20T06:47:39.525Z,20.66
2019-06-20T06:50:08.995Z,20.44
2019-06-20T06:52:37.475Z,20.49
2019-06-20T06:55:07.309Z,20.49
2019-06-20T06:57:35.910Z,20.11
2019-06-20T07:00:07.437Z,20.12
2019-06-20T07:02:35.971Z,19.94
2019-06-20T07:05:06.021Z,20.08
2019-06-20T07:07:34.534Z,20.06
2019-06-20T07:10:04.472Z,20.15
2019-06-20T07:12:32.922Z,20.29
2019-06-20T07:15:01.328Z,20.58
2019-06-20T07:17:29.867Z,20.71
2019-06-20T07:19:58.776Z,20.85
2019-06-20T07:22:27.169Z,21.01
2019-06-20T07:24:55.718Z,21.31
2019-06-20T07:27:24.189Z,21.58
2019-06-20T07:29:52.569Z,21.90
2019-06-20T07:32:21.118Z,22.08
2019-06-20T07:34:50.268Z,21.83
2019-06-20T07:37:18.852Z,21.76
2019-06-20T07:39:47.433Z,21.49
2019-06-20T07:42:15.966Z,21.42
2019-06-20T07:44:44.414Z,21.55
2019-06-20T07:47:17.507Z,21.42
2019-06-20T07:49:43.144Z,21.56
2019-06-20T07:52:11.625Z,21.69
2019-06-20T07:54:40.082Z,21.52
2019-06-20T07:57:08.612Z,21.66
2019-06-20T07:59:37.025Z,21.83
2019-06-20T08:02:05.590Z,21.77
2019-06-20T08:04:33.999Z,21.55
2019-06-20T08:07:02.442Z,21.73
2019-06-20T08:09:44.466Z,21.88
2019-06-20T08:12:01.115Z,21.96
2019-06-20T08:14:29.646Z,22.10
2019-06-20T08:16:58.046Z,22.25
2019-06-20T08:19:26.531Z,22.46
2019-06-20T08:21:54.989Z,22.65
2019-06-20T08:24:23.441Z,22.77
2019-06-20T08:26:51.919Z,22.87
2019-06-20T08:29:21.488Z,23.02
2019-06-20T08:31:50.269Z,23.04
2019-06-20T08:34:18.793Z,23.12
2019-06-20T08:36:47.270Z,23.12
2019-06-20T08:39:15.671Z,24.24
2019-06-20T08:41:44.199Z,24.18
2019-06-20T08:44:12.654Z,24.32
2019-06-20T08:46:41.201Z,24.52
2019-06-20T08:49:09.745Z,24.97
2019-06-20T08:51:38.249Z,26.00
2019-06-20T08:54:06.773Z,26.58
2019-06-20T08:56:35.277Z,27.10
2019-06-20T08:59:04.880Z,26.59
2019-06-20T09:01:33.549Z,26.78
2019-06-20T09:06:30.495Z,25.07
2019-06-20T09:09:00.065Z,24.72
2019-06-20T09:11:28.582Z,23.93
2019-06-20T09:13:57.320Z,23.87
2019-06-20T09:16:26.149Z,23.88
2019-06-20T09:18:54.994Z,24.00
2019-06-20T09:21:25.019Z,24.04
2019-06-20T09:23:54.199Z,24.04
2019-06-20T09:26:22.822Z,24.09
2019-06-20T09:28:52.691Z,24.31
2019-06-20T09:31:21.685Z,24.51
2019-06-20T09:33:52.170Z,24.33
2019-06-20T09:36:20.541Z,23.81
2019-06-20T09:38:48.891Z,23.56
2019-06-20T09:41:17.383Z,23.72
2019-06-20T09:43:45.841Z,23.90
2019-06-20T09:46:14.284Z,24.12
2019-06-20T09:48:42.852Z,24.17
2019-06-20T09:51:11.301Z,24.29
2019-06-20T09:53:39.868Z,24.33
2019-06-20T09:56:08.415Z,24.57
2019-06-20T09:58:36.800Z,24.87
2019-06-20T10:01:05.241Z,25.05
2019-06-20T10:03:33.712Z,25.33
2019-06-20T10:06:12.801Z,24.86
2019-06-20T10:08:32.571Z,24.72
2019-06-20T10:11:01.062Z,25.19
2019-06-20T10:13:32.640Z,24.73
2019-06-20T10:15:59.811Z,25.10
2019-06-20T10:18:28.333Z,24.85
2019-06-20T10:20:57.693Z,24.72
2019-06-20T10:23:26.245Z,24.57
2019-06-20T10:25:54.703Z,24.94
2019-06-20T10:28:23.238Z,25.00
2019-06-20T10:30:53.355Z,25.02
2019-06-20T10:33:21.990Z,24.86
2019-06-20T10:35:50.454Z,25.16
2019-06-20T10:38:18.980Z,25.51
2019-06-20T10:40:47.966Z,25.80
2019-06-20T10:43:16.548Z,25.92
2019-06-20T10:45:45.836Z,26.40
2019-06-20T10:48:14.438Z,26.31
2019-06-20T10:50:44.048Z,26.41
2019-06-20T10:53:12.976Z,26.14
2019-06-20T10:55:43.238Z,25.58
2019-06-20T10:58:12.037Z,25.38
2019-06-20T11:00:41.720Z,25.19
2019-06-20T11:03:10.876Z,25.32
2019-06-20T11:05:40.878Z,25.25
2019-06-20T11:08:09.612Z,25.50
2019-06-20T11:10:40.039Z,25.37
2019-06-20T11:13:08.671Z,25.32
2019-06-20T11:15:37.533Z,25.69
2019-06-20T11:18:07.348Z,26.10
2019-06-20T11:20:35.905Z,26.19
2019-06-20T11:23:04.412Z,26.31
2019-06-20T11:25:32.986Z,26.51
2019-06-20T11:28:01.436Z,26.62
2019-06-20T11:30:44.777Z,25.95
2019-06-20T11:33:01.748Z,26.01
2019-06-20T11:35:30.293Z,26.18
2019-06-20T11:37:58.763Z,26.54
2019-06-20T11:40:27.415Z,26.68
2019-06-20T11:42:55.962Z,27.09
2019-06-20T11:45:24.478Z,27.71
2019-06-20T11:47:52.965Z,28.38
2019-06-20T11:50:21.841Z,28.33
2019-06-20T11:52:50.385Z,28.49
2019-06-20T11:55:19.029Z,28.38
2019-06-20T11:57:47.453Z,27.39
2019-06-20T12:00:17.157Z,26.89
2019-06-20T12:02:46.212Z,26.35
2019-06-20T12:05:15.348Z,25.96
2019-06-20T12:07:45.550Z,25.92
2019-06-20T12:10:15.670Z,25.81
2019-06-20T12:12:44.737Z,26.37
2019-06-20T12:15:15.886Z,27.78
2019-06-20T12:17:45.351Z,30.40
2019-06-20T12:20:14.791Z,31.35
2019-06-20T12:22:44.914Z,32.38
2019-06-20T12:25:15.492Z,33.17
2019-06-20T12:27:45.467Z,32.22
2019-06-20T12:30:16.378Z,31.57
2019-06-20T12:32:44.936Z,31.29
2019-06-20T12:35:13.887Z,30.81
2019-06-20T12:37:42.794Z,30.59
2019-06-20T12:40:13.497Z,30.55
2019-06-20T12:42:43.217Z,30.30
2019-06-20T12:45:14.788Z,29.99
2019-06-20T12:47:43.811Z,29.70
2019-06-20T12:50:13.998Z,30.17
2019-06-20T12:52:42.651Z,31.15
2019-06-20T12:55:12.062Z,34.33
2019-06-20T12:57:42.101Z,36.80
2019-06-20T13:00:12.839Z,37.65
2019-06-20T13:02:41.944Z,38.20
2019-06-20T13:05:11.898Z,36.15
2019-06-20T13:07:42.214Z,34.74
2019-06-20T13:10:11.160Z,33.71
2019-06-20T13:12:40.941Z,32.55
2019-06-20T13:15:10.216Z,30.91
2019-06-20T13:17:39.967Z,30.09
2019-06-20T13:20:09.477Z,29.42
2019-06-20T13:22:39.523Z,28.59
2019-06-20T13:25:08.578Z,27.76
2019-06-20T13:27:38.125Z,27.43
2019-06-20T13:30:11.166Z,27.28
2019-06-20T13:32:41.731Z,27.33
2019-06-20T13:35:10.872Z,27.00
2019-06-20T13:37:40.312Z,26.67
2019-06-20T13:40:13.800Z,26.54
2019-06-20T13:42:44.069Z,26.48
2019-06-20T13:45:18.091Z,25.79
2019-06-20T13:47:47.824Z,25.84
2019-06-20T13:50:16.554Z,25.79
2019-06-20T13:52:46.840Z,25.92
2019-06-20T13:55:15.248Z,25.55
2019-06-20T13:57:45.249Z,25.45
2019-06-20T14:00:14.490Z,24.93
2019-06-20T14:02:44.921Z,24.62
2019-06-20T14:05:14.726Z,24.79
2019-06-20T14:07:46.750Z,27.19
2019-06-20T14:10:13.485Z,28.17
2019-06-20T14:12:43.135Z,28.11
2019-06-20T14:15:12.978Z,27.37
2019-06-20T14:17:43.095Z,26.66
2019-06-20T14:20:12.067Z,26.26
2019-06-20T14:22:41.422Z,25.97
2019-06-20T14:25:11.449Z,25.39
2019-06-20T14:27:39.946Z,25.20
2019-06-20T14:30:10.150Z,24.65
2019-06-20T14:32:38.717Z,24.50
2019-06-20T14:35:07.343Z,24.52
2019-06-20T14:37:35.873Z,24.51
2019-06-20T14:40:06.780Z,24.59
2019-06-20T14:42:35.019Z,24.57
2019-06-20T14:45:05.614Z,24.55
2019-06-20T14:47:34.229Z,24.49
2019-06-20T14:50:02.762Z,24.44
2019-06-20T14:52:31.253Z,24.24
2019-06-20T14:54:59.762Z,24.22
2019-06-20T14:57:28.312Z,24.40
2019-06-20T14:59:56.809Z,24.59
2019-06-20T15:02:37.512Z,24.76
2019-06-20T15:04:55.511Z,25.13
2019-06-20T15:07:23.961Z,25.51
2019-06-20T15:09:53.260Z,25.94
2019-06-20T15:12:21.857Z,25.92
2019-06-20T15:14:51.389Z,26.46
2019-06-20T15:17:20.107Z,26.51
2019-06-20T15:19:49.459Z,26.68
2019-06-20T15:22:17.945Z,26.96
2019-06-20T15:24:48.617Z,27.11
2019-06-20T15:27:16.710Z,27.23
2019-06-20T15:29:47.052Z,27.19
2019-06-20T15:32:15.578Z,27.09
2019-06-20T15:34:44.112Z,27.22
2019-06-20T15:37:12.494Z,27.31
2019-06-20T15:39:41.438Z,27.16
2019-06-20T15:42:09.979Z,26.52
2019-06-20T15:44:38.574Z,26.69
2019-06-20T15:47:07.821Z,26.83
2019-06-20T15:49:36.319Z,26.88
2019-06-20T15:52:04.867Z,26.74
2019-06-20T15:54:33.471Z,26.70
2019-06-20T15:57:01.930Z,26.85
2019-06-20T15:59:30.463Z,26.90
2019-06-20T16:01:58.992Z,26.98
2019-06-20T16:04:27.461Z,26.98
2019-06-20T16:06:56.065Z,26.86
2019-06-20T16:09:24.519Z,26.80
2019-06-20T16:11:53.035Z,26.60
2019-06-20T16:14:21.458Z,26.54
2019-06-20T16:16:49.927Z,26.38
2019-06-20T16:19:18.563Z,26.20
2019-06-20T16:21:47.113Z,26.14
2019-06-20T16:24:15.574Z,25.95
2019-06-20T16:26:44.171Z,26.05
2019-06-20T16:29:12.649Z,25.92
2019-06-20T16:31:41.103Z,25.99
2019-06-20T16:34:09.725Z,25.90
2019-06-20T16:36:38.314Z,25.82
2019-06-20T16:39:08.542Z,25.77
2019-06-20T16:41:37.054Z,25.64
2019-06-20T16:44:06.123Z,25.58
2019-06-20T16:46:34.627Z,25.58
2019-06-20T16:49:03.198Z,25.68
2019-06-20T16:51:31.758Z,25.82
2019-06-20T16:54:00.252Z,25.95
2019-06-20T16:56:28.749Z,26.11
2019-06-20T16:58:57.203Z,25.61
2019-06-20T17:01:25.774Z,25.66
2019-06-20T17:03:54.238Z,25.57
2019-06-20T17:06:22.726Z,25.37
2019-06-20T17:08:51.152Z,25.16
2019-06-20T17:11:19.634Z,25.02
2019-06-20T17:13:48.157Z,25.10
2019-06-20T17:16:16.747Z,25.18
2019-06-20T17:18:45.270Z,25.23
2019-06-20T17:21:13.811Z,25.30
2019-06-20T17:23:42.329Z,25.37
2019-06-20T17:26:10.941Z,25.42
2019-06-20T17:28:39.459Z,25.44
2019-06-20T17:31:08.093Z,25.43
2019-06-20T17:33:36.546Z,25.44
2019-06-20T17:36:17.672Z,25.38
2019-06-20T17:38:35.375Z,25.27
2019-06-20T17:41:03.930Z,25.22
2019-06-20T17:43:32.321Z,25.13
2019-06-20T17:46:00.760Z,25.19
2019-06-20T17:48:29.286Z,24.98
2019-06-20T17:50:57.735Z,24.99
2019-06-20T17:53:26.271Z,24.96
2019-06-20T17:55:54.678Z,24.97
2019-06-20T17:58:23.122Z,25.07
2019-06-20T18:00:51.594Z,25.09
2019-06-20T18:03:20.119Z,25.13
2019-06-20T18:05:48.612Z,25.05
2019-06-20T18:08:17.069Z,25.10
2019-06-20T18:10:45.565Z,25.16
2019-06-20T18:13:14.028Z,25.21
2019-06-20T18:15:42.548Z,25.25
2019-06-20T18:18:11.100Z,25.20
2019-06-20T18:20:39.562Z,25.08
2019-06-20T18:23:08.089Z,25.07
2019-06-20T18:25:38.051Z,25.04
2019-06-20T18:28:06.559Z,25.07
2019-06-20T18:30:43.114Z,25.05
2019-06-20T18:33:11.893Z,25.06
2019-06-20T18:35:40.400Z,25.09
2019-06-20T18:38:08.970Z,25.08
2019-06-20T18:40:37.509Z,24.99
2019-06-20T18:43:06.128Z,24.99
2019-06-20T18:45:34.681Z,24.98
2019-06-20T18:48:03.281Z,24.92
2019-06-20T18:50:31.740Z,24.85
2019-06-20T18:53:00.259Z,24.84
2019-06-20T18:55:28.687Z,24.84
2019-06-20T18:57:57.212Z,24.80
2019-06-20T19:00:34.729Z,24.82
2019-06-20T19:02:56.898Z,24.76
2019-06-20T19:05:25.380Z,24.73
2019-06-20T19:07:53.919Z,24.70
2019-06-20T19:10:22.890Z,24.72
2019-06-20T19:12:51.520Z,24.68
2019-06-20T19:15:20.680Z,24.58
2019-06-20T19:17:49.273Z,24.55
2019-06-20T19:20:18.035Z,24.52
2019-06-20T19:22:46.622Z,24.57
2019-06-20T19:25:15.131Z,24.52
2019-06-20T19:27:46.519Z,24.48
2019-06-20T19:30:15.955Z,24.42
2019-06-20T19:32:44.460Z,24.38
2019-06-20T19:35:13.428Z,24.31
2019-06-20T19:37:42.310Z,24.33
2019-06-20T19:40:12.833Z,24.29
2019-06-20T19:42:41.418Z,24.31
2019-06-20T19:45:11.081Z,24.27
2019-06-20T19:47:40.294Z,24.24
2019-06-20T19:50:09.165Z,24.28
2019-06-20T19:52:38.120Z,24.26
2019-06-20T19:55:06.786Z,24.29
2019-06-20T19:57:35.328Z,24.30
2019-06-20T20:00:10.105Z,24.29
2019-06-20T20:02:38.567Z,24.30
2019-06-20T20:05:18.284Z,24.29
2019-06-20T20:07:38.612Z,24.30
2019-06-20T20:10:08.453Z,24.34
2019-06-20T20:12:37.297Z,24.35
2019-06-20T20:15:08.156Z,24.39
2019-06-20T20:17:36.749Z,24.38
2019-06-20T20:20:08.896Z,24.36
2019-06-20T20:22:37.458Z,24.37
2019-06-20T20:25:07.865Z,24.35
2019-06-20T20:27:36.457Z,24.35
2019-06-20T20:30:09.314Z,24.36
2019-06-20T20:32:37.956Z,24.35
2019-06-20T20:35:07.074Z,24.35
2019-06-20T20:37:36.639Z,24.36
2019-06-20T20:40:09.296Z,24.35
2019-06-20T20:42:37.760Z,24.36
2019-06-20T20:45:08.488Z,24.37
2019-06-20T20:47:37.026Z,24.37
2019-06-20T20:50:07.084Z,24.36
2019-06-20T20:52:35.593Z,24.35
2019-06-20T20:55:06.425Z,24.33
2019-06-20T20:57:35.069Z,24.33
2019-06-20T21:00:12.476Z,24.28
2019-06-20T21:02:41.173Z,24.24
2019-06-20T21:05:09.849Z,24.20
2019-06-20T21:07:39.319Z,24.16
2019-06-20T21:10:10.613Z,24.12
2019-06-20T21:12:39.198Z,24.11
2019-06-20T21:15:08.504Z,24.10
2019-06-20T21:17:37.139Z,24.03
2019-06-20T21:20:08.477Z,24.02
2019-06-20T21:22:37.070Z,23.97
2019-06-20T21:25:08.635Z,23.93
2019-06-20T21:27:37.122Z,23.94
2019-06-20T21:30:09.853Z,23.98
2019-06-20T21:32:38.533Z,23.92
2019-06-20T21:35:10.245Z,23.89
2019-06-20T21:37:41.145Z,23.87
2019-06-20T21:40:10.037Z,23.83
2019-06-20T21:42:38.575Z,23.80
2019-06-20T21:45:08.392Z,23.81
2019-06-20T21:47:37.031Z,23.87
2019-06-20T21:50:08.723Z,23.85
2019-06-20T21:52:37.716Z,23.77
2019-06-20T21:55:07.279Z,23.62
2019-06-20T21:57:35.741Z,23.58
2019-06-20T22:00:25.263Z,23.61
2019-06-20T22:02:53.863Z,23.65
2019-06-20T22:05:22.380Z,23.71
2019-06-20T22:07:50.981Z,23.76
2019-06-20T22:10:19.544Z,23.79
2019-06-20T22:12:48.005Z,23.80
2019-06-20T22:15:16.649Z,23.78
2019-06-20T22:17:45.160Z,23.75
2019-06-20T22:20:14.040Z,23.68
2019-06-20T22:22:42.545Z,23.56
2019-06-20T22:25:11.306Z,23.49
2019-06-20T22:27:39.835Z,23.42
2019-06-20T22:30:11.433Z,23.43
2019-06-20T22:32:39.959Z,23.40
2019-06-20T22:35:09.094Z,23.38
2019-06-20T22:37:37.634Z,23.31
2019-06-20T22:40:08.459Z,23.26
2019-06-20T22:42:36.932Z,23.25
2019-06-20T22:45:07.628Z,23.22
2019-06-20T22:47:36.108Z,23.18
2019-06-20T22:50:07.694Z,23.13
2019-06-20T22:52:36.103Z,22.91
2019-06-20T22:55:05.823Z,23.02
2019-06-20T22:57:34.310Z,22.82
2019-06-20T23:00:03.714Z,22.62
2019-06-20T23:02:32.291Z,22.26
2019-06-20T23:05:00.671Z,22.18
2019-06-20T23:07:29.137Z,22.01
2019-06-20T23:10:09.995Z,21.99
2019-06-20T23:12:27.706Z,21.89
2019-06-20T23:14:56.179Z,21.91
2019-06-20T23:17:24.643Z,21.85
2019-06-20T23:19:53.190Z,21.87
2019-06-20T23:22:21.629Z,21.69
2019-06-20T23:24:50.178Z,21.57
2019-06-20T23:27:18.561Z,21.63
2019-06-20T23:29:46.978Z,21.60
2019-06-20T23:32:15.492Z,21.55
2019-06-20T23:34:43.953Z,21.56
2019-06-20T23:37:13.313Z,21.59
2019-06-20T23:39:41.961Z,21.55
2019-06-20T23:42:10.540Z,21.55
2019-06-20T23:44:38.999Z,21.47
2019-06-20T23:47:07.532Z,21.46
2019-06-20T23:49:35.979Z,21.48
2019-06-20T23:52:09.239Z,21.43
2019-06-20T23:54:37.710Z,21.38
2019-06-20T23:57:06.211Z,21.33
2019-06-20T23:59:34.732Z,21.27
